Track Державина Анна 4141

Time Latitude Longitude Accuracy (66% radius in meters) Altitude (meters) Speed (km/hour) Bearing (degrees) Battery (%) GPS flag
10:21:32 51.778803 39.293754 4 107.14462360303 0.024445431306958 173.73132324219 73 1 delete
10:21:24 51.778803 39.293752 8 107.33728677086 0.80218726396561 317.85940551758 73 1 delete
10:21:17 51.778806 39.293772 6 107.39760081966 0.25999999046326 194.10534667969 73 1 delete
10:21:08 51.778820 39.293755 6 108.38101112686 0.045320499688387 190.0846862793 73 1 delete
10:21:02 51.778827 39.293754 4 108.43259496321 0.038192760199308 190.0846862793 73 1 delete
10:20:59 51.778831 39.293754 4 108.45519696195 0.038144294172525 190.0846862793 73 1 delete
10:20:56 51.778836 39.293754 4 108.4728254738 0.0118985818699 190.0846862793 73 1 delete
10:20:50 51.778848 39.293755 4 108.48332299528 0.034866947680712 190.0846862793 73 1 delete
10:20:44 51.778853 39.293753 4 108.46826607696 0.04440326243639 190.0846862793 73 1 delete
10:20:35 51.778861 39.293753 4 108.41650073368 0.011964716017246 190.0846862793 73 1 delete
10:20:29 51.778862 39.293752 4 108.3664705662 0.010459739714861 190.0846862793 73 1 delete
10:20:23 51.778870 39.293754 8 108.31570768307 0.0043379692360759 190.0846862793 73 1 delete
10:20:17 51.778874 39.293744 8 108.24463881489 0.052619863301516 190.0846862793 73 1 delete
10:20:11 51.778868 39.293739 8 108.14213300927 0.08586697280407 190.0846862793 73 1 delete
10:20:05 51.778860 39.293746 4 108.05193545503 0.025398349389434 190.0846862793 73 1 delete
10:19:59 51.778858 39.293740 8 107.97103538811 0.045217294245958 190.0846862793 73 1 delete
10:19:53 51.778862 39.293726 4 107.91947348351 0.047958049923182 190.0846862793 73 1 delete
10:19:44 51.778873 39.293723 8 107.85037719187 0.013906537555158 190.0846862793 73 1 delete
10:19:38 51.778859 39.293731 8 107.78273059706 0.017127616330981 190.0846862793 73 1 delete
10:19:32 51.778836 39.293746 6 107.6208701182 0.13393925130367 190.0846862793 73 1 delete
10:19:26 51.778834 39.293749 6 107.55165269283 0.017760748043656 190.0846862793 73 1 delete
10:19:20 51.778834 39.293747 6 107.56794873323 0.017179986461997 190.0846862793 73 1 delete
10:19:14 51.778831 39.293742 6 107.61278996559 0.025064250454307 190.0846862793 73 1 delete
10:19:05 51.778820 39.293735 4 107.67392535512 0.0085469437763095 190.0846862793 73 1 delete
10:18:59 51.778809 39.293726 4 107.73830945101 0.027192402631044 190.0846862793 73 1 delete
10:18:53 51.778807 39.293720 4 107.82107630277 0.011664422228932 190.0846862793 73 1 delete
10:18:47 51.778816 39.293723 4 107.91180539472 0.010962319560349 190.0846862793 73 1 delete
10:18:41 51.778837 39.293727 4 107.98544729732 0.041067436337471 190.0846862793 73 1 delete
10:18:35 51.778871 39.293753 8 108.00686798158 0.036108382046223 190.0846862793 73 1 delete
10:18:29 51.778875 39.293748 6 107.9374371833 0.015135643072426 190.0846862793 73 1 delete
10:18:23 51.778894 39.293748 6 107.8598484079 0.021472243592143 190.0846862793 73 1 delete
10:18:14 51.778893 39.293736 8 107.66071106414 0.01709245890379 190.0846862793 73 1 delete
10:18:08 51.778886 39.293761 6 107.51019994506 0.056852728128433 190.0846862793 73 1 delete
10:18:02 51.778873 39.293755 6 107.21134630627 0.003305678255856 190.0846862793 73 1 delete
10:17:56 51.778869 39.293784 8 106.74376062416 0.057512316852808 190.0846862793 73 1 delete
10:17:50 51.778864 39.293787 8 106.63455088877 0.02878275513649 190.0846862793 73 1 delete
10:17:44 51.778847 39.293789 6 106.55278875667 0.020549660548568 190.0846862793 73 1 delete
10:17:38 51.778853 39.293796 8 106.49487995822 0.032449394464493 190.0846862793 73 1 delete
10:17:32 51.778869 39.293800 6 106.44033009263 0.0024145497009158 190.0846862793 73 1 delete
10:17:23 51.778881 39.293803 8 106.3049277109 0.018690155819058 190.0846862793 73 1 delete
10:17:17 51.778877 39.293802 6 106.1956853645 0.020827703177929 190.0846862793 73 1 delete
10:17:05 51.778869 39.293802 6 106.00684812329 0.043185777962208 190.0846862793 73 1 delete
10:16:59 51.778869 39.293800 8 105.91430259496 0.007837850600481 190.0846862793 73 1 delete
10:16:53 51.778859 39.293795 6 105.81828529379 0.02164363488555 190.0846862793 73 1 delete
10:16:47 51.778841 39.293788 6 105.7377601761 0.041169673204422 190.0846862793 73 1 delete
10:16:44 51.778828 39.293781 4 105.71044903462 0.0086125144734979 190.0846862793 73 1 delete
10:16:41 51.778821 39.293776 4 105.69858346661 0.039875995367765 190.0846862793 73 1 delete
10:16:35 51.778822 39.293776 4 105.68960195942 0.023338053375483 190.0846862793 73 1 delete
10:16:29 51.778813 39.293774 6 105.68397159398 0.0076273716986179 190.0846862793 73 1 delete
10:16:20 51.778810 39.293744 4 105.69636248669 0.019386833533645 190.0846862793 73 1 delete